createdAt,value
2023-04-13T00:00:01.013Z,57.7
2023-04-13T00:01:06.429Z,57.79
2023-04-13T00:02:12.046Z,57.53
2023-04-13T00:03:18.210Z,57.69
2023-04-13T00:04:23.809Z,57.53
2023-04-13T00:05:29.321Z,57.49
2023-04-13T00:06:34.657Z,57.7
2023-04-13T00:07:40.002Z,57.55
2023-04-13T00:08:45.360Z,57.47
2023-04-13T00:09:50.683Z,57.39
2023-04-13T00:10:55.980Z,57.36
2023-04-13T00:12:01.330Z,57.72
2023-04-13T00:13:06.861Z,57.72
2023-04-13T00:14:12.164Z,57.63
2023-04-13T00:15:17.501Z,57.46
2023-04-13T00:16:22.956Z,57.63
2023-04-13T00:17:28.461Z,57.65
2023-04-13T00:18:33.755Z,57.77
2023-04-13T00:19:39.060Z,58.15
2023-04-13T00:20:44.471Z,57.75
2023-04-13T00:21:49.864Z,57.78
2023-04-13T00:22:58.161Z,57.62
2023-04-13T00:24:03.547Z,57.72
2023-04-13T00:25:08.902Z,57.61
2023-04-13T00:26:14.199Z,57.59
2023-04-13T00:27:19.521Z,57.64
2023-04-13T00:28:24.824Z,57.7
2023-04-13T00:29:30.101Z,57.72
2023-04-13T00:30:35.674Z,57.68
2023-04-13T00:31:41.016Z,57.99
2023-04-13T00:32:46.430Z,57.91
2023-04-13T00:33:51.772Z,57.94
2023-04-13T00:34:57.054Z,57.84
2023-04-13T00:36:02.438Z,57.81
2023-04-13T00:37:07.767Z,57.84
2023-04-13T00:38:13.119Z,57.74
2023-04-13T00:39:18.443Z,58.09
2023-04-13T00:40:23.758Z,57.94
2023-04-13T00:41:29.094Z,58.08
2023-04-13T00:42:34.418Z,57.88
2023-04-13T00:43:39.713Z,58.08
2023-04-13T00:44:45.045Z,58.05
2023-04-13T00:45:50.635Z,58.16
2023-04-13T00:46:55.980Z,58.21
2023-04-13T00:48:01.853Z,57.99
2023-04-13T00:49:07.195Z,58.3
2023-04-13T00:50:12.497Z,58.18
2023-04-13T00:51:17.829Z,58.04
2023-04-13T00:52:23.114Z,58.2
2023-04-13T00:53:28.424Z,58.05
2023-04-13T00:54:33.757Z,58.12
2023-04-13T00:55:39.054Z,58.09
2023-04-13T00:56:44.331Z,57.99
2023-04-13T00:57:49.690Z,58.06
2023-04-13T00:58:55.040Z,58.09
2023-04-13T01:00:00.338Z,58.12
2023-04-13T01:01:05.717Z,58.17
2023-04-13T01:02:11.607Z,58.21
2023-04-13T01:03:17.543Z,58.08
2023-04-13T01:04:23.221Z,58.24
2023-04-13T01:05:28.523Z,58.41
2023-04-13T01:06:33.869Z,58.27
2023-04-13T01:07:39.194Z,58.34
2023-04-13T01:08:44.499Z,58.41
2023-04-13T01:09:49.824Z,58.12
2023-04-13T01:10:55.162Z,58.44
2023-04-13T01:12:00.483Z,58.12
2023-04-13T01:13:05.776Z,58.19
2023-04-13T01:14:11.054Z,58.2
2023-04-13T01:15:16.341Z,58.2
2023-04-13T01:16:22.010Z,58.29
2023-04-13T01:17:27.681Z,58.72
2023-04-13T01:18:32.992Z,58.59
2023-04-13T01:19:38.286Z,58.31
2023-04-13T01:20:43.579Z,58.37
2023-04-13T01:21:49.002Z,58.45
2023-04-13T01:22:54.342Z,58.37
2023-04-13T01:24:00.350Z,58.73
2023-04-13T01:25:05.825Z,58.4
2023-04-13T01:26:11.143Z,58.24
2023-04-13T01:27:16.498Z,58.28
2023-04-13T01:28:21.805Z,58.52
2023-04-13T01:29:27.104Z,58.48
2023-04-13T01:30:32.402Z,58.27
2023-04-13T01:31:37.901Z,58.56
2023-04-13T01:32:43.332Z,58.34
2023-04-13T01:33:48.646Z,58.44
2023-04-13T01:34:54.168Z,58.58
2023-04-13T01:35:59.444Z,58.29
2023-04-13T01:37:04.770Z,58.46
2023-04-13T01:38:10.150Z,58.27
2023-04-13T01:39:15.445Z,58.66
2023-04-13T01:40:20.842Z,58.48
2023-04-13T01:41:26.191Z,58.5
2023-04-13T01:42:31.519Z,58.49
2023-04-13T01:43:36.855Z,58.79
2023-04-13T01:44:42.138Z,58.63
2023-04-13T01:45:48.500Z,58.71
2023-04-13T01:46:53.929Z,58.77
2023-04-13T01:47:59.414Z,58.6
2023-04-13T01:49:04.748Z,58.51
2023-04-13T01:50:10.053Z,58.47
2023-04-13T01:51:15.373Z,58.37
2023-04-13T01:52:20.698Z,58.39
2023-04-13T01:53:26.233Z,58.61
2023-04-13T01:54:31.543Z,59.01
2023-04-13T01:55:36.839Z,58.55
2023-04-13T01:56:42.132Z,58.49
2023-04-13T01:57:47.411Z,58.69
2023-04-13T01:58:52.806Z,58.64
2023-04-13T01:59:58.103Z,58.75
2023-04-13T02:01:03.548Z,58.61
2023-04-13T02:02:09.247Z,58.55
2023-04-13T02:03:14.963Z,58.87
2023-04-13T02:04:20.775Z,58.87
2023-04-13T02:05:26.171Z,58.58
2023-04-13T02:06:31.484Z,58.7
2023-04-13T02:07:36.790Z,58.5
2023-04-13T02:08:42.203Z,58.56
2023-04-13T02:09:47.502Z,58.7
2023-04-13T02:10:52.845Z,58.79
2023-04-13T02:11:58.145Z,58.82
2023-04-13T02:13:03.465Z,58.59
2023-04-13T02:14:08.818Z,58.79
2023-04-13T02:15:14.140Z,58.79
2023-04-13T02:16:19.556Z,58.72
2023-04-13T02:17:25.090Z,59.18
2023-04-13T02:18:30.480Z,58.88
2023-04-13T02:19:35.770Z,58.79
2023-04-13T02:20:41.122Z,58.8
2023-04-13T02:21:46.414Z,58.79
2023-04-13T02:22:51.754Z,58.68
2023-04-13T02:23:57.380Z,58.67
2023-04-13T02:25:02.980Z,58.69
2023-04-13T02:26:08.310Z,58.82
2023-04-13T02:27:13.605Z,58.72
2023-04-13T02:28:19.543Z,58.72
2023-04-13T02:29:24.824Z,58.7
2023-04-13T02:30:30.128Z,59.07
2023-04-13T02:31:35.555Z,58.79
2023-04-13T02:32:41.162Z,58.7
2023-04-13T02:33:46.535Z,58.78
2023-04-13T02:34:51.982Z,59.37
2023-04-13T02:35:57.338Z,58.89
2023-04-13T02:37:02.633Z,58.89
2023-04-13T02:38:07.962Z,58.79
2023-04-13T02:39:13.286Z,58.81
2023-04-13T02:40:18.623Z,59.04
2023-04-13T02:41:23.943Z,59
2023-04-13T02:42:29.389Z,58.99
2023-04-13T02:43:34.850Z,59.09
2023-04-13T02:44:40.141Z,58.94
2023-04-13T02:45:45.647Z,59.29
2023-04-13T02:46:50.960Z,58.95
2023-04-13T02:47:56.432Z,58.96
2023-04-13T02:49:01.804Z,58.89
2023-04-13T02:50:07.109Z,58.94
2023-04-13T02:51:12.424Z,58.83
2023-04-13T02:52:17.719Z,59.08
2023-04-13T02:53:23.018Z,59.01
2023-04-13T02:54:28.333Z,59.03
2023-04-13T02:55:33.763Z,58.85
2023-04-13T02:56:39.039Z,59.57
2023-04-13T02:57:44.367Z,59.16
2023-04-13T02:58:49.647Z,59.15
2023-04-13T02:59:55.054Z,59.21
2023-04-13T03:01:00.498Z,59.2
2023-04-13T03:02:05.929Z,59.17
2023-04-13T03:03:11.432Z,59.03
2023-04-13T03:04:16.881Z,59.18
2023-04-13T03:05:22.272Z,58.98
2023-04-13T03:06:27.617Z,59.16
2023-04-13T03:07:32.951Z,58.95
2023-04-13T03:08:38.254Z,59.13
2023-04-13T03:09:43.596Z,59.24
2023-04-13T03:10:48.921Z,59.06
2023-04-13T03:11:54.272Z,59.2
2023-04-13T03:12:59.627Z,59.3
2023-04-13T03:14:05.254Z,59.29
2023-04-13T03:15:10.546Z,59.64
2023-04-13T03:16:15.963Z,59.78
2023-04-13T03:17:22.730Z,59.34
2023-04-13T03:18:28.142Z,60.05
2023-04-13T03:19:33.518Z,59.99
2023-04-13T03:20:38.820Z,59.74
2023-04-13T03:21:44.160Z,60.09
2023-04-13T03:22:49.787Z,59.76
2023-04-13T03:23:55.089Z,60.01
2023-04-13T03:25:00.449Z,59.26
2023-04-13T03:26:05.744Z,59.27
2023-04-13T03:27:11.047Z,60.01
2023-04-13T03:28:16.342Z,59.95
2023-04-13T03:29:21.657Z,59.32
2023-04-13T03:30:26.972Z,59.44
2023-04-13T03:31:32.478Z,59.31
2023-04-13T03:32:37.998Z,59.58
2023-04-13T03:33:43.343Z,60.03
2023-04-13T03:34:48.691Z,59.26
2023-04-13T03:35:54.017Z,59.88
2023-04-13T03:36:59.339Z,59.61
2023-04-13T03:38:04.706Z,59.8
2023-04-13T03:39:10.159Z,59.92
2023-04-13T03:40:15.490Z,59.3
2023-04-13T03:41:20.776Z,59.45
2023-04-13T03:42:26.161Z,59.83
2023-04-13T03:43:31.451Z,59.91
2023-04-13T03:44:36.787Z,60.28
2023-04-13T03:45:42.104Z,60.19
2023-04-13T03:46:47.760Z,60.35
2023-04-13T03:47:53.328Z,60.59
2023-04-13T03:48:58.633Z,60.48
2023-04-13T03:50:03.972Z,60.51
2023-04-13T03:51:09.574Z,60.63
2023-04-13T03:52:14.926Z,60.41
2023-04-13T03:53:20.240Z,60.06
2023-04-13T03:54:25.554Z,60.2
2023-04-13T03:55:30.893Z,60.12
2023-04-13T03:56:36.263Z,59.73
2023-04-13T03:57:41.562Z,58.69
2023-04-13T03:58:46.897Z,59.14
2023-04-13T03:59:52.233Z,58.83
2023-04-13T04:00:57.560Z,59.26
2023-04-13T04:02:03.148Z,58.36
2023-04-13T04:03:08.770Z,58.59
2023-04-13T04:04:14.459Z,58.34
2023-04-13T04:05:20.101Z,57.37
2023-04-13T04:06:25.465Z,57.35
2023-04-13T04:07:30.800Z,57.27
2023-04-13T04:08:36.137Z,57.14
2023-04-13T04:09:41.473Z,57.16
2023-04-13T04:10:46.799Z,56.9
2023-04-13T04:11:52.097Z,56.63
2023-04-13T04:12:57.383Z,56.53
2023-04-13T04:14:03.350Z,56.28
2023-04-13T04:15:08.704Z,56.37
2023-04-13T04:16:14.411Z,56.15
2023-04-13T04:17:19.728Z,56.23
2023-04-13T04:18:25.042Z,56.09
2023-04-13T04:19:30.445Z,55.98
2023-04-13T04:20:35.781Z,55.9
2023-04-13T04:21:41.112Z,55.83
2023-04-13T04:22:46.416Z,55.73
2023-04-13T04:23:51.690Z,55.6
2023-04-13T04:24:57.016Z,55.53
2023-04-13T04:26:02.334Z,55.47
2023-04-13T04:27:08.628Z,55.28
2023-04-13T04:28:14.001Z,55.37
2023-04-13T04:29:19.425Z,55.32
2023-04-13T04:30:24.895Z,55.32
2023-04-13T04:31:30.284Z,55.26
2023-04-13T04:32:35.742Z,55.29
2023-04-13T04:33:41.043Z,55.17
2023-04-13T04:34:46.353Z,55.24
2023-04-13T04:35:51.729Z,55.11
2023-04-13T04:37:11.005Z,55.14
2023-04-13T04:38:23.358Z,55.16
2023-04-13T04:39:28.736Z,55.16
2023-04-13T04:40:33.997Z,55.17
2023-04-13T04:41:39.436Z,55.12
2023-04-13T04:42:44.739Z,55.19
2023-04-13T04:43:50.046Z,55.21
2023-04-13T04:44:55.346Z,55.25
2023-04-13T04:46:00.999Z,55.2
2023-04-13T04:47:06.373Z,55.22
2023-04-13T04:48:11.884Z,55.27
2023-04-13T04:49:17.245Z,55.28
2023-04-13T04:50:22.579Z,55.37
2023-04-13T04:51:27.950Z,55.44
2023-04-13T04:52:33.230Z,55.37
2023-04-13T04:53:38.577Z,55.45
2023-04-13T04:54:43.914Z,55.42
2023-04-13T04:55:49.244Z,55.5
2023-04-13T04:56:54.561Z,55.49
2023-04-13T04:57:59.971Z,55.48
2023-04-13T04:59:05.287Z,55.51
2023-04-13T05:00:10.621Z,55.58
2023-04-13T05:01:16.019Z,55.57
2023-04-13T05:02:23.297Z,55.59
2023-04-13T05:03:29.064Z,55.63
2023-04-13T05:04:34.502Z,55.7
2023-04-13T05:05:39.994Z,55.68
2023-04-13T05:06:45.344Z,55.7
2023-04-13T05:07:50.672Z,55.71
2023-04-13T05:08:55.987Z,55.72
2023-04-13T05:10:01.330Z,55.69
2023-04-13T05:11:06.662Z,55.72
2023-04-13T05:12:11.987Z,55.76
2023-04-13T05:13:17.304Z,55.82
2023-04-13T05:14:22.683Z,55.84
2023-04-13T05:15:28.017Z,55.75
2023-04-13T05:16:33.780Z,55.8
2023-04-13T05:17:39.528Z,55.85
2023-04-13T05:18:44.820Z,55.88
2023-04-13T05:19:50.123Z,55.78
2023-04-13T05:20:55.456Z,55.67
2023-04-13T05:22:00.748Z,55.87
2023-04-13T05:23:06.155Z,55.76
2023-04-13T05:24:11.484Z,55.63
2023-04-13T05:25:16.792Z,55.58
2023-04-13T05:26:22.146Z,55.49
2023-04-13T05:27:27.476Z,55.44
2023-04-13T05:28:32.789Z,55.33
2023-04-13T05:29:38.106Z,55.37
2023-04-13T05:30:43.450Z,55.28
2023-04-13T05:31:48.933Z,55.28
2023-04-13T05:32:54.460Z,55.26
2023-04-13T05:33:59.876Z,55.27
2023-04-13T05:35:05.249Z,55.26
2023-04-13T05:36:10.573Z,55.21
2023-04-13T05:37:15.867Z,55.2
2023-04-13T05:38:21.252Z,55.2
2023-04-13T05:39:26.527Z,55.15
2023-04-13T05:40:31.843Z,55.11
2023-04-13T05:41:37.174Z,55.1
2023-04-13T05:42:42.503Z,55.19
2023-04-13T05:43:47.849Z,55.14
2023-04-13T05:44:53.213Z,55.19
2023-04-13T05:45:58.766Z,55.17
2023-04-13T05:47:04.156Z,55.18
2023-04-13T05:48:09.469Z,55.24
2023-04-13T05:49:14.793Z,55.27
2023-04-13T05:50:20.075Z,55.25
2023-04-13T05:51:25.464Z,55.26
2023-04-13T05:52:30.758Z,55.22
2023-04-13T05:53:36.048Z,55.31
2023-04-13T05:54:41.421Z,55.36
2023-04-13T05:55:49.767Z,55.25
2023-04-13T05:56:55.093Z,55.28
2023-04-13T05:58:00.446Z,55.25
2023-04-13T05:59:05.801Z,55.3
2023-04-13T06:00:11.204Z,55.37
2023-04-13T06:01:16.507Z,55.31
2023-04-13T06:02:22.462Z,55.26
2023-04-13T06:03:28.737Z,55.29
2023-04-13T06:04:34.867Z,55.27
2023-04-13T06:05:40.404Z,55.27
2023-04-13T06:06:45.720Z,55.29
2023-04-13T06:07:51.115Z,55.28
2023-04-13T06:08:56.527Z,55.29
2023-04-13T06:10:01.971Z,55.34
2023-04-13T06:11:07.362Z,55.24
2023-04-13T06:12:12.653Z,55.28
2023-04-13T06:13:17.964Z,55.29
2023-04-13T06:14:23.252Z,55.18
2023-04-13T06:15:28.558Z,55.2
2023-04-13T06:16:34.042Z,55.33
2023-04-13T06:17:39.606Z,55.36
2023-04-13T06:18:44.987Z,55.34
2023-04-13T06:19:50.279Z,55.38
2023-04-13T06:20:55.581Z,55.35
2023-04-13T06:22:00.931Z,55.31
2023-04-13T06:23:06.352Z,55.31
2023-04-13T06:24:11.678Z,55.36
2023-04-13T06:25:17.005Z,55.28
2023-04-13T06:26:22.376Z,55.37
2023-04-13T06:27:27.950Z,55.32
2023-04-13T06:28:33.257Z,55.4
2023-04-13T06:29:38.529Z,55.33
2023-04-13T06:30:44.038Z,55.39
2023-04-13T06:31:49.355Z,55.49
2023-04-13T06:32:54.824Z,55.36
2023-04-13T06:34:00.200Z,55.46
2023-04-13T06:35:05.553Z,55.45
2023-04-13T06:36:10.934Z,55.32
2023-04-13T06:37:16.272Z,55.43
2023-04-13T06:38:21.599Z,55.33
2023-04-13T06:39:31.206Z,55.35
2023-04-13T06:40:38.003Z,55.33
2023-04-13T06:41:43.351Z,55.32
2023-04-13T06:42:48.651Z,55.23
2023-04-13T06:43:53.987Z,55.2
2023-04-13T06:44:59.305Z,55.2
2023-04-13T06:46:04.787Z,55.2
2023-04-13T06:47:10.137Z,55.16
2023-04-13T06:48:15.482Z,55.18
2023-04-13T06:49:20.838Z,54.98
2023-04-13T06:50:26.134Z,55.2
2023-04-13T06:51:31.440Z,55.16
2023-04-13T06:52:36.772Z,55.15
2023-04-13T06:53:42.108Z,55.04
2023-04-13T06:54:47.426Z,55.06
2023-04-13T06:55:52.748Z,55.06
2023-04-13T06:56:58.075Z,55.09
2023-04-13T06:58:03.442Z,55.13
2023-04-13T06:59:09.738Z,55.07
2023-04-13T07:00:31.848Z,55
2023-04-13T07:01:37.483Z,55.07
2023-04-13T07:02:43.157Z,54.98
2023-04-13T07:03:49.120Z,55.05
2023-04-13T07:04:54.707Z,55.02
2023-04-13T07:06:00.052Z,55
2023-04-13T07:07:05.389Z,55.02
2023-04-13T07:08:10.760Z,55.07
2023-04-13T07:09:16.098Z,55.04
2023-04-13T07:10:21.543Z,55.11
2023-04-13T07:11:26.874Z,55.1
2023-04-13T07:12:32.204Z,55.1
2023-04-13T07:13:37.628Z,55.09
2023-04-13T07:14:42.943Z,55.07
2023-04-13T07:15:48.408Z,55.12
2023-04-13T07:16:53.739Z,55.08
2023-04-13T07:17:59.228Z,55.04
2023-04-13T07:19:05.840Z,55.07
2023-04-13T07:20:11.149Z,55.07
2023-04-13T07:21:16.498Z,55.13
2023-04-13T07:22:21.805Z,55.09
2023-04-13T07:23:27.113Z,55.06
2023-04-13T07:24:33.001Z,55.1
2023-04-13T07:25:38.312Z,55.12
2023-04-13T07:26:43.639Z,55.17
2023-04-13T07:27:48.960Z,55.13
2023-04-13T07:28:54.330Z,55.03
2023-04-13T07:29:59.713Z,55.12
2023-04-13T07:31:05.171Z,55.16
2023-04-13T07:32:10.489Z,55.11
2023-04-13T07:33:15.986Z,55.15
2023-04-13T07:34:21.359Z,55.15
2023-04-13T07:35:26.662Z,55.11
2023-04-13T07:36:31.964Z,55.08
2023-04-13T07:37:37.312Z,55.15
2023-04-13T07:38:45.152Z,55.12
2023-04-13T07:39:50.484Z,55.28
2023-04-13T07:40:55.851Z,55.27
2023-04-13T07:42:01.135Z,55.23
2023-04-13T07:43:06.510Z,55.28
2023-04-13T07:44:11.817Z,55.29
2023-04-13T07:45:17.247Z,55.24
2023-04-13T07:46:22.734Z,55.2
2023-04-13T07:47:28.218Z,55.23
2023-04-13T07:48:33.587Z,55.16
2023-04-13T07:49:38.903Z,55.09
2023-04-13T07:50:44.224Z,55.14
2023-04-13T07:51:49.532Z,55.11
2023-04-13T07:52:54.841Z,55.2
2023-04-13T07:54:00.185Z,55.2
2023-04-13T07:55:05.553Z,55.21
2023-04-13T07:56:10.901Z,55.18
2023-04-13T07:57:16.221Z,55.21
2023-04-13T07:58:21.546Z,55.14
2023-04-13T07:59:27.980Z,55.19
2023-04-13T08:00:33.313Z,55.2
2023-04-13T08:01:38.683Z,55.17
2023-04-13T08:02:44.960Z,55.1
2023-04-13T08:03:50.887Z,55.09
2023-04-13T08:04:56.734Z,55.14
2023-04-13T08:06:02.139Z,55.24
2023-04-13T08:07:07.514Z,55.19
2023-04-13T08:08:12.824Z,55.17
2023-04-13T08:09:18.205Z,55.13
2023-04-13T08:10:23.585Z,55.15
2023-04-13T08:11:28.933Z,55.19
2023-04-13T08:12:34.237Z,54.99
2023-04-13T08:13:39.560Z,55.15
2023-04-13T08:14:44.882Z,55.14
2023-04-13T08:15:50.250Z,55.2
2023-04-13T08:16:56.126Z,55.12
2023-04-13T08:18:02.794Z,55.02
2023-04-13T08:19:08.089Z,54.94
2023-04-13T08:20:15.680Z,55.03
2023-04-13T08:21:22.252Z,54.91
2023-04-13T08:22:27.550Z,54.97
2023-04-13T08:23:32.895Z,55.02
2023-04-13T08:24:38.216Z,55.01
2023-04-13T08:25:43.621Z,55.09
2023-04-13T08:26:48.935Z,55.05
2023-04-13T08:27:54.280Z,55.12
2023-04-13T08:29:00.533Z,55
2023-04-13T08:30:06.089Z,55.13
2023-04-13T08:31:11.711Z,54.94
2023-04-13T08:32:17.232Z,55.01
2023-04-13T08:33:22.690Z,55.05
2023-04-13T08:34:28.029Z,54.97
2023-04-13T08:35:33.343Z,54.88
2023-04-13T08:36:38.640Z,55.04
2023-04-13T08:37:43.952Z,54.96
2023-04-13T08:38:49.301Z,54.92
2023-04-13T08:39:54.576Z,54.52
2023-04-13T08:40:59.906Z,54.33
2023-04-13T08:42:05.269Z,53.74
2023-04-13T08:43:10.565Z,53.39
2023-04-13T08:44:15.883Z,53.14
2023-04-13T08:45:21.203Z,53.09
2023-04-13T08:46:26.666Z,52.88
2023-04-13T08:47:32.263Z,52.8
2023-04-13T08:48:54.975Z,52.64
2023-04-13T08:50:00.299Z,52.3
2023-04-13T08:51:08.836Z,52.08
2023-04-13T08:52:16.940Z,51.97
2023-04-13T08:53:22.313Z,51.94
2023-04-13T08:54:27.630Z,51.75
2023-04-13T08:55:32.928Z,51.45
2023-04-13T08:56:48.801Z,51.4
2023-04-13T08:57:54.509Z,51.4
2023-04-13T08:59:00.890Z,51.19
2023-04-13T09:00:06.418Z,51.09
2023-04-13T09:01:11.915Z,51.2
2023-04-13T09:02:17.557Z,51.54
2023-04-13T09:03:23.492Z,51.51
2023-04-13T09:04:29.627Z,51.63
2023-04-13T09:05:35.084Z,51.75
2023-04-13T09:06:40.371Z,51.86
2023-04-13T09:07:45.721Z,51.83
2023-04-13T09:08:51.017Z,51.8
2023-04-13T09:09:56.392Z,52.02
2023-04-13T09:11:01.851Z,52.07
2023-04-13T09:12:07.149Z,52.12
2023-04-13T09:13:12.468Z,52.06
2023-04-13T09:14:17.760Z,52.04
2023-04-13T09:15:23.133Z,52.14
2023-04-13T09:16:28.526Z,52.22
2023-04-13T09:17:33.980Z,52.29
2023-04-13T09:18:39.526Z,52.38
2023-04-13T09:19:44.850Z,52.46
2023-04-13T09:20:50.198Z,52.48
2023-04-13T09:21:55.572Z,52.56
2023-04-13T09:23:02.262Z,52.53
2023-04-13T09:24:09.718Z,52.53
2023-04-13T09:25:15.067Z,52.52
2023-04-13T09:26:20.398Z,52.65
2023-04-13T09:27:25.818Z,52.64
2023-04-13T09:28:31.087Z,52.67
2023-04-13T09:29:36.397Z,52.67
2023-04-13T09:30:41.942Z,52.7
2023-04-13T09:31:48.594Z,52.78
2023-04-13T09:32:53.955Z,52.65
2023-04-13T09:33:59.659Z,52.75
2023-04-13T09:35:05.174Z,52.82
2023-04-13T09:36:10.594Z,52.79
2023-04-13T09:37:15.908Z,52.74
2023-04-13T09:38:21.227Z,52.82
2023-04-13T09:39:26.593Z,52.85
2023-04-13T09:40:32.107Z,52.87
2023-04-13T09:41:37.442Z,52.92
2023-04-13T09:42:42.806Z,52.86
2023-04-13T09:43:48.160Z,52.9
2023-04-13T09:44:53.481Z,52.91
2023-04-13T09:45:58.894Z,53.02
2023-04-13T09:47:04.285Z,53.02
2023-04-13T09:48:09.898Z,53.05
2023-04-13T09:49:15.228Z,53.04
2023-04-13T09:50:20.684Z,53.03
2023-04-13T09:51:26.003Z,53.04
2023-04-13T09:52:31.410Z,53.08
2023-04-13T09:53:36.758Z,53.1
2023-04-13T09:54:42.105Z,53.13
2023-04-13T09:55:47.456Z,53.17
2023-04-13T09:56:52.952Z,53.14
2023-04-13T09:57:58.326Z,53.1
2023-04-13T09:59:03.859Z,53.15
2023-04-13T10:00:09.170Z,53.18
2023-04-13T10:01:14.573Z,53.21
2023-04-13T10:02:20.211Z,53.25
2023-04-13T10:03:25.966Z,53.23
2023-04-13T10:04:31.518Z,53.27
2023-04-13T10:06:00.561Z,53.25
2023-04-13T10:07:06.046Z,53.31
2023-04-13T10:08:11.376Z,53.34
2023-04-13T10:09:16.720Z,53.36
2023-04-13T10:10:22.041Z,53.37
2023-04-13T10:11:27.374Z,53.34
2023-04-13T10:12:32.686Z,53.39
2023-04-13T10:13:37.987Z,53.41
2023-04-13T10:14:43.309Z,53.43
2023-04-13T10:15:48.670Z,53.38
2023-04-13T10:16:54.200Z,53.32
2023-04-13T10:17:59.851Z,53.38
2023-04-13T10:19:05.303Z,53.48
2023-04-13T10:20:10.624Z,53.41
2023-04-13T10:21:15.945Z,53.38
2023-04-13T10:22:21.249Z,53.38
2023-04-13T10:23:26.677Z,53.39
2023-04-13T10:24:32.006Z,53.49
2023-04-13T10:25:41.343Z,53.53
2023-04-13T10:26:46.743Z,53.57
2023-04-13T10:27:52.053Z,53.54
2023-04-13T10:28:57.478Z,53.57
2023-04-13T10:30:03.263Z,53.64
2023-04-13T10:31:08.701Z,53.63
2023-04-13T10:32:14.098Z,53.53
2023-04-13T10:33:19.423Z,53.62
2023-04-13T10:34:24.713Z,53.54
2023-04-13T10:35:30.024Z,53.59
2023-04-13T10:36:35.321Z,53.54
2023-04-13T10:37:40.638Z,53.52
2023-04-13T10:38:46.018Z,53.5
2023-04-13T10:39:51.354Z,53.51
2023-04-13T10:40:56.652Z,53.5
2023-04-13T10:42:02.033Z,53.54
2023-04-13T10:43:07.320Z,53.41
2023-04-13T10:44:12.677Z,53.54
2023-04-13T10:45:17.988Z,53.58
2023-04-13T10:46:23.638Z,53.53
2023-04-13T10:47:30.793Z,53.49
2023-04-13T10:48:36.217Z,53.6
2023-04-13T10:49:41.537Z,53.58
2023-04-13T10:50:46.845Z,53.64
2023-04-13T10:51:52.158Z,53.63
2023-04-13T10:52:57.536Z,53.59
2023-04-13T10:54:02.866Z,53.73
2023-04-13T10:55:08.201Z,53.64
2023-04-13T10:56:13.495Z,53.63
2023-04-13T10:57:18.807Z,53.69
2023-04-13T10:58:24.137Z,53.71
2023-04-13T10:59:29.520Z,53.7
2023-04-13T11:00:48.737Z,53.73
2023-04-13T11:01:54.130Z,53.81
2023-04-13T11:03:00.141Z,53.74
2023-04-13T11:04:16.076Z,53.77
2023-04-13T11:05:23.047Z,53.8
2023-04-13T11:06:28.369Z,53.74
2023-04-13T11:07:33.696Z,53.76
2023-04-13T11:08:39.032Z,53.77
2023-04-13T11:09:44.338Z,53.79
2023-04-13T11:10:49.683Z,53.8
2023-04-13T11:11:54.969Z,53.83
2023-04-13T11:13:00.270Z,53.84
2023-04-13T11:14:05.610Z,53.75
2023-04-13T11:15:10.967Z,53.72
2023-04-13T11:16:16.533Z,53.74
2023-04-13T11:17:22.757Z,53.86
2023-04-13T11:18:28.240Z,53.86
2023-04-13T11:19:33.613Z,53.88
2023-04-13T11:20:38.997Z,53.82
2023-04-13T11:21:44.349Z,53.83
2023-04-13T11:22:50.416Z,53.86
2023-04-13T11:23:55.728Z,53.88
2023-04-13T11:25:01.049Z,53.92
2023-04-13T11:26:06.444Z,53.88
2023-04-13T11:27:11.784Z,53.88
2023-04-13T11:28:17.136Z,53.92
2023-04-13T11:29:22.494Z,53.9
2023-04-13T11:30:27.857Z,53.94
2023-04-13T11:31:33.212Z,53.96
2023-04-13T11:32:38.684Z,53.97
2023-04-13T11:33:44.024Z,53.9
2023-04-13T11:34:49.450Z,53.96
2023-04-13T11:35:54.872Z,53.82
2023-04-13T11:37:00.195Z,53.91
2023-04-13T11:38:05.504Z,53.89
2023-04-13T11:39:13.225Z,53.91
2023-04-13T11:40:18.753Z,53.9
2023-04-13T11:41:24.058Z,53.84
2023-04-13T11:42:29.418Z,53.83
2023-04-13T11:43:34.758Z,53.85
2023-04-13T11:44:40.216Z,53.84
2023-04-13T11:45:45.797Z,53.95
2023-04-13T11:46:52.480Z,54
2023-04-13T11:47:57.978Z,53.93
2023-04-13T11:49:03.705Z,53.92
2023-04-13T11:50:09.066Z,53.91
2023-04-13T11:51:14.670Z,53.85
2023-04-13T11:52:20.015Z,53.79
2023-04-13T11:53:25.402Z,53.73
2023-04-13T11:54:30.733Z,53.82
2023-04-13T11:55:55.041Z,53.46
2023-04-13T11:57:00.500Z,53.69
2023-04-13T11:58:05.791Z,53.7
2023-04-13T11:59:11.194Z,53.63
2023-04-13T12:00:19.121Z,53.6
2023-04-13T12:01:36.742Z,53.67
2023-04-13T12:03:07.306Z,53.4
2023-04-13T12:04:20.063Z,53.44
2023-04-13T12:05:26.301Z,53.5
2023-04-13T12:06:33.214Z,53.44
2023-04-13T12:07:39.893Z,53.68
2023-04-13T12:08:53.194Z,53.62
2023-04-13T12:10:08.311Z,53.53
2023-04-13T12:11:44.623Z,53.53
2023-04-13T12:13:07.934Z,53.44
2023-04-13T12:15:15.762Z,53.38
2023-04-13T12:17:18.222Z,53.36
2023-04-13T12:18:42.972Z,53.39
2023-04-13T12:19:51.516Z,53.38
2023-04-13T12:20:57.800Z,53.36
2023-04-13T12:22:04.904Z,53.4
2023-04-13T12:23:25.266Z,53.47
2023-04-13T12:24:32.806Z,53.36
2023-04-13T12:25:42.000Z,53.44
2023-04-13T12:28:01.804Z,53.27
2023-04-13T12:29:07.161Z,53.33
2023-04-13T12:30:12.474Z,53.46
2023-04-13T12:31:18.052Z,53.52
2023-04-13T12:32:23.586Z,53.35
2023-04-13T12:33:28.936Z,53.29
2023-04-13T12:34:34.387Z,53.31
2023-04-13T12:35:39.689Z,53.44
2023-04-13T12:36:44.980Z,53.43
2023-04-13T12:37:50.325Z,53.26
2023-04-13T12:38:55.686Z,53.36
2023-04-13T12:40:01.007Z,53.45
2023-04-13T12:41:06.326Z,53.39
2023-04-13T12:42:11.702Z,53.45
2023-04-13T12:43:17.030Z,53.44
2023-04-13T12:44:22.489Z,53.51
2023-04-13T12:45:28.026Z,53.44
2023-04-13T12:46:33.456Z,53.5
2023-04-13T12:47:39.070Z,53.47
2023-04-13T12:48:44.424Z,53.38
2023-04-13T12:49:49.725Z,53.44
2023-04-13T12:50:55.048Z,53.47
2023-04-13T12:52:00.445Z,53.44
2023-04-13T12:53:05.813Z,53.25
2023-04-13T12:54:11.135Z,53.35
2023-04-13T12:55:16.428Z,53.42
2023-04-13T12:56:21.748Z,53.34
2023-04-13T12:57:27.068Z,53.35
2023-04-13T12:58:34.736Z,53.39
2023-04-13T12:59:40.190Z,53.36
2023-04-13T13:00:45.751Z,53.42
2023-04-13T13:01:51.324Z,53.56
2023-04-13T13:03:16.143Z,53.47
2023-04-13T13:04:21.644Z,53.4
2023-04-13T13:05:26.980Z,53.5
2023-04-13T13:06:32.292Z,53.54
2023-04-13T13:07:37.657Z,53.54
2023-04-13T13:08:43.331Z,53.5
2023-04-13T13:09:48.663Z,53.57
2023-04-13T13:10:54.169Z,53.65
2023-04-13T13:11:59.527Z,53.66
2023-04-13T13:13:04.854Z,53.73
2023-04-13T13:14:13.681Z,53.74
2023-04-13T13:15:19.028Z,53.76
2023-04-13T13:16:24.478Z,53.78
2023-04-13T13:17:29.898Z,53.82
2023-04-13T13:18:52.934Z,53.88
2023-04-13T13:19:58.279Z,53.98
2023-04-13T13:21:03.643Z,53.93
2023-04-13T13:22:08.936Z,53.95
2023-04-13T13:23:14.269Z,53.98
2023-04-13T13:24:19.643Z,53.98
2023-04-13T13:25:25.129Z,53.95
2023-04-13T13:28:18.385Z,54.08
2023-04-13T13:29:23.740Z,54.01
2023-04-13T13:30:29.061Z,54.09
2023-04-13T13:31:34.572Z,54.06
2023-04-13T13:32:40.153Z,54.08
2023-04-13T13:33:45.549Z,54.04
2023-04-13T13:34:50.895Z,54.1
2023-04-13T13:35:56.264Z,54.09
2023-04-13T13:37:01.606Z,54.08
2023-04-13T13:38:06.923Z,54.08
2023-04-13T13:39:12.240Z,54.1
2023-04-13T13:40:17.574Z,54.07
2023-04-13T13:41:22.932Z,54.08
2023-04-13T13:42:44.339Z,54.09
2023-04-13T13:43:55.257Z,54.06
2023-04-13T13:45:00.712Z,54.08
2023-04-13T13:46:06.163Z,54.07
2023-04-13T13:47:11.479Z,54.05
2023-04-13T13:48:16.900Z,54.06
2023-04-13T13:49:22.223Z,54.02
2023-04-13T13:50:27.573Z,54.08
2023-04-13T13:51:33.002Z,54.04
2023-04-13T13:52:41.710Z,53.98
2023-04-13T13:53:48.916Z,54.02
2023-04-13T13:54:54.311Z,54.05
2023-04-13T13:55:59.669Z,54.04
2023-04-13T13:57:05.048Z,54.06
2023-04-13T13:58:10.442Z,54.03
2023-04-13T13:59:15.827Z,54.03
2023-04-13T14:00:21.164Z,54.02
2023-04-13T14:01:26.644Z,53.99
2023-04-13T14:02:32.260Z,54.02
2023-04-13T14:03:38.028Z,54.05
2023-04-13T14:04:43.636Z,54.01
2023-04-13T14:05:49.051Z,53.99
2023-04-13T14:06:54.373Z,53.99
2023-04-13T14:07:59.701Z,53.96
2023-04-13T14:09:05.493Z,54.01
2023-04-13T14:10:10.804Z,54
2023-04-13T14:11:16.139Z,53.96
2023-04-13T14:12:21.452Z,53.99
2023-04-13T14:13:26.776Z,54.03
2023-04-13T14:14:32.128Z,54.04
2023-04-13T14:15:37.556Z,54.02
2023-04-13T14:16:42.926Z,54.02